This demonstration page uses our WeatherBlox Daily Observations layout. Learn more.

Left ArrowRight Arrow

39.08367, -84.50855

Hourly Observations for March 31, 2015

Temp ( °F °C ) Dew Point ( °F °C ) Humidity (%) Winds ( mph kmh ) Pressure ( in mb ) Visibility ( mi km ) Precip ( " mm )
12:53 am 00:53 Clear 45 7.2 35 1.7 68 68 N N/A 30.03 1017 10 16.0934 N/A
1:53 am 01:53 Clear 43 6.1 34 1.1 71 71 N N/A 30 1016 10 16.0934 N/A
2:53 am 02:53 Clear 38 3.3 35 1.7 89 89 N N/A 29.98 1015 10 16.0934 N/A
3:53 am 03:53 Clear 38 3.3 34 1.1 86 86 N N/A 29.93 1014 10 16.0934 N/A
4:53 am 04:53 Clear 35 1.7 33 0.6 93 93 N N/A 29.9 1013 10 16.0934 N/A
5:53 am 05:53 Mostly Cloudy 39 3.9 34 1.1 82 82 SW 8 13 29.88 1012 10 16.0934 N/A
6:53 am 06:53 Mostly Cloudy 43 6.1 33 0.6 68 68 SSW 12 19 29.85 1011 10 16.0934 N/A
7:53 am 07:53 Mostly Cloudy 49 9.4 32 undefined 52 52 SSW 13 20 29.84 1011 10 16.0934 N/A
8:53 am 08:53 Sunny 52 11.1 33 0.6 49 49 SW 18 30 29.82 1010 10 16.0934 N/A
9:53 am 09:53 Sunny 57 13.9 36 2.2 45 45 SW 16 26 29.81 1010 10 16.0934 N/A
10:53 am 10:53 Sunny 61 16.1 38 3.3 43 43 WSW 14 22 29.8 1009 10 16.0934 N/A
11:53 am 11:53 Sunny 65 18.3 38 3.3 37 37 W 17 28 29.8 1009 10 16.0934 N/A
12:53 pm 12:53 Sunny 67 19.4 39 3.9 36 36 WSW 18 30 29.8 1009 10 16.0934 N/A
1:53 pm 13:53 Sunny 68 20 38 3.3 33 33 W 18 30 29.8 1009 10 16.0934 N/A
2:53 pm 14:53 Sunny 69 20.6 31 -0.6 24 24 W 23 37 29.81 1010 10 16.0934 N/A
3:53 pm 15:53 Sunny 67 19.4 37 2.8 33 33 NW 20 31 29.83 1010 10 16.0934 N/A
4:53 pm 16:53 Sunny 65 18.3 34 1.1 32 32 NW 21 33 29.85 1011 10 16.0934 N/A
5:53 pm 17:53 Mostly Sunny 63 17.2 35 1.7 35 35 N 21 33 29.88 1012 10 16.0934 N/A
6:53 pm 18:53 Mostly Sunny 60 15.6 35 1.7 39 39 NNW 17 28 29.91 1013 10 16.0934 N/A
7:53 pm 19:53 Mostly Sunny 56 13.3 35 1.7 46 46 NNW 10 17 29.93 1014 10 16.0934 N/A
8:53 pm 20:53 Clear 53 11.7 37 2.8 55 55 N 12 19 29.97 1015 10 16.0934 N/A
9:53 pm 21:53 Clear 49 9.4 38 3.3 66 66 N 6 9 30.01 1016 10 16.0934 N/A
10:53 pm 22:53 Clear 45 7.2 36 2.2 71 71 NNE 6 9 30.02 1017 10 16.0934 N/A
11:53 pm 23:53 Clear 42 5.6 35 1.7 76 76 ENE 7 11 30.05 1018 10 16.0934 N/A

Powered by AerisWeather